sensor_id;sensor_type;location;lat;lon;timestamp;P1;durP1;ratioP1;P2;durP2;ratioP2
51010;SDS011;37038;50.182;8.624;2022-08-05T00:02:41;4.95;;;2.63;;
51010;SDS011;37038;50.182;8.624;2022-08-05T00:05:37;6.65;;;3.13;;
51010;SDS011;37038;50.182;8.624;2022-08-05T00:08:49;7.32;;;2.85;;
51010;SDS011;37038;50.182;8.624;2022-08-05T00:11:39;17.40;;;4.07;;
51010;SDS011;37038;50.182;8.624;2022-08-05T00:14:41;13.10;;;4.13;;
51010;SDS011;37038;50.182;8.624;2022-08-05T00:17:29;15.88;;;4.22;;
51010;SDS011;37038;50.182;8.624;2022-08-05T00:20:17;12.98;;;4.60;;
51010;SDS011;37038;50.182;8.624;2022-08-05T00:23:07;7.65;;;5.00;;
51010;SDS011;37038;50.182;8.624;2022-08-05T00:25:59;12.82;;;5.38;;
51010;SDS011;37038;50.182;8.624;2022-08-05T00:28:48;9.57;;;5.22;;
51010;SDS011;37038;50.182;8.624;2022-08-05T00:31:36;10.10;;;4.63;;
51010;SDS011;37038;50.182;8.624;2022-08-05T00:34:44;8.43;;;4.97;;
51010;SDS011;37038;50.182;8.624;2022-08-05T00:37:52;12.10;;;4.55;;
51010;SDS011;37038;50.182;8.624;2022-08-05T00:40:53;8.75;;;4.68;;
51010;SDS011;37038;50.182;8.624;2022-08-05T00:43:45;7.95;;;4.50;;
51010;SDS011;37038;50.182;8.624;2022-08-05T00:46:36;10.32;;;5.05;;
51010;SDS011;37038;50.182;8.624;2022-08-05T00:49:30;10.07;;;4.85;;
51010;SDS011;37038;50.182;8.624;2022-08-05T00:52:37;8.57;;;4.68;;
51010;SDS011;37038;50.182;8.624;2022-08-05T00:55:25;8.52;;;4.25;;
51010;SDS011;37038;50.182;8.624;2022-08-05T00:58:28;12.17;;;4.80;;
51010;SDS011;37038;50.182;8.624;2022-08-05T01:01:16;8.43;;;4.47;;
51010;SDS011;37038;50.182;8.624;2022-08-05T01:04:29;7.10;;;3.75;;
51010;SDS011;37038;50.182;8.624;2022-08-05T01:07:17;4.80;;;3.38;;
51010;SDS011;37038;50.182;8.624;2022-08-05T01:10:05;5.93;;;3.03;;
51010;SDS011;37038;50.182;8.624;2022-08-05T01:13:01;5.25;;;2.72;;
51010;SDS011;37038;50.182;8.624;2022-08-05T01:16:17;8.18;;;2.75;;
51010;SDS011;37038;50.182;8.624;2022-08-05T01:26:02;9.25;;;4.13;;
51010;SDS011;37038;50.182;8.624;2022-08-05T01:29:15;14.90;;;4.72;;
51010;SDS011;37038;50.182;8.624;2022-08-05T01:32:10;12.77;;;4.53;;
51010;SDS011;37038;50.182;8.624;2022-08-05T01:35:08;15.80;;;5.00;;
51010;SDS011;37038;50.182;8.624;2022-08-05T01:38:20;11.32;;;4.97;;
51010;SDS011;37038;50.182;8.624;2022-08-05T01:41:13;8.15;;;4.97;;
51010;SDS011;37038;50.182;8.624;2022-08-05T01:44:08;9.05;;;4.35;;
51010;SDS011;37038;50.182;8.624;2022-08-05T01:46:57;7.80;;;4.40;;
51010;SDS011;37038;50.182;8.624;2022-08-05T01:49:51;9.40;;;4.82;;
51010;SDS011;37038;50.182;8.624;2022-08-05T01:52:48;9.05;;;4.47;;
51010;SDS011;37038;50.182;8.624;2022-08-05T01:55:40;8.90;;;4.63;;
51010;SDS011;37038;50.182;8.624;2022-08-05T01:58:30;8.80;;;4.22;;
51010;SDS011;37038;50.182;8.624;2022-08-05T02:01:31;9.43;;;4.90;;
51010;SDS011;37038;50.182;8.624;2022-08-05T02:04:27;8.73;;;4.32;;
51010;SDS011;37038;50.182;8.624;2022-08-05T02:07:17;7.18;;;4.35;;
51010;SDS011;37038;50.182;8.624;2022-08-05T02:10:09;10.77;;;4.97;;
51010;SDS011;37038;50.182;8.624;2022-08-05T02:16:03;12.20;;;5.45;;
51010;SDS011;37038;50.182;8.624;2022-08-05T02:22:38;10.00;;;5.65;;
51010;SDS011;37038;50.182;8.624;2022-08-05T02:25:33;10.40;;;5.25;;
51010;SDS011;37038;50.182;8.624;2022-08-05T02:31:32;16.80;;;5.70;;
51010;SDS011;37038;50.182;8.624;2022-08-05T02:34:23;9.45;;;5.53;;
51010;SDS011;37038;50.182;8.624;2022-08-05T02:37:16;11.30;;;6.07;;
51010;SDS011;37038;50.182;8.624;2022-08-05T02:40:07;10.88;;;6.78;;
51010;SDS011;37038;50.182;8.624;2022-08-05T02:42:57;13.90;;;8.35;;
51010;SDS011;37038;50.182;8.624;2022-08-05T02:45:46;16.00;;;8.75;;
51010;SDS011;37038;50.182;8.624;2022-08-05T02:48:40;12.67;;;9.13;;
51010;SDS011;37038;50.182;8.624;2022-08-05T02:51:29;16.83;;;9.82;;
51010;SDS011;37038;50.182;8.624;2022-08-05T02:54:38;44.63;;;14.93;;
51010;SDS011;37038;50.182;8.624;2022-08-05T02:57:38;18.63;;;9.73;;
51010;SDS011;37038;50.182;8.624;2022-08-05T03:00:47;25.55;;;10.50;;
51010;SDS011;37038;50.182;8.624;2022-08-05T03:03:39;27.75;;;11.05;;
51010;SDS011;37038;50.182;8.624;2022-08-05T03:06:48;15.18;;;9.45;;
51010;SDS011;37038;50.182;8.624;2022-08-05T03:09:45;19.58;;;9.60;;
51010;SDS011;37038;50.182;8.624;2022-08-05T03:12:38;23.50;;;10.88;;
51010;SDS011;37038;50.182;8.624;2022-08-05T03:15:27;14.77;;;9.02;;
51010;SDS011;37038;50.182;8.624;2022-08-05T03:18:15;20.88;;;9.77;;
51010;SDS011;37038;50.182;8.624;2022-08-05T03:21:03;16.92;;;10.13;;
51010;SDS011;37038;50.182;8.624;2022-08-05T03:23:52;12.77;;;9.30;;
51010;SDS011;37038;50.182;8.624;2022-08-05T03:26:44;15.68;;;9.48;;
51010;SDS011;37038;50.182;8.624;2022-08-05T03:29:35;15.35;;;9.27;;
51010;SDS011;37038;50.182;8.624;2022-08-05T03:32:44;16.60;;;8.85;;
51010;SDS011;37038;50.182;8.624;2022-08-05T03:35:33;14.90;;;7.97;;
51010;SDS011;37038;50.182;8.624;2022-08-05T03:38:27;25.42;;;8.38;;
51010;SDS011;37038;50.182;8.624;2022-08-05T03:41:23;14.90;;;9.18;;
51010;SDS011;37038;50.182;8.624;2022-08-05T03:44:19;16.42;;;8.80;;
51010;SDS011;37038;50.182;8.624;2022-08-05T03:47:07;15.63;;;9.07;;
51010;SDS011;37038;50.182;8.624;2022-08-05T03:49:59;17.83;;;8.65;;
51010;SDS011;37038;50.182;8.624;2022-08-05T03:52:49;15.68;;;8.40;;
51010;SDS011;37038;50.182;8.624;2022-08-05T03:59:20;16.45;;;7.97;;
51010;SDS011;37038;50.182;8.624;2022-08-05T04:02:33;13.07;;;8.05;;
51010;SDS011;37038;50.182;8.624;2022-08-05T04:05:38;14.93;;;8.05;;
51010;SDS011;37038;50.182;8.624;2022-08-05T04:08:28;16.13;;;8.88;;
51010;SDS011;37038;50.182;8.624;2022-08-05T04:11:22;15.50;;;9.00;;
51010;SDS011;37038;50.182;8.624;2022-08-05T04:14:31;15.35;;;8.45;;
51010;SDS011;37038;50.182;8.624;2022-08-05T04:17:19;15.07;;;9.10;;
51010;SDS011;37038;50.182;8.624;2022-08-05T04:20:15;13.88;;;8.38;;
51010;SDS011;37038;50.182;8.624;2022-08-05T04:26:02;15.63;;;8.73;;
51010;SDS011;37038;50.182;8.624;2022-08-05T04:28:50;14.13;;;8.63;;
51010;SDS011;37038;50.182;8.624;2022-08-05T04:31:38;16.08;;;9.23;;
51010;SDS011;37038;50.182;8.624;2022-08-05T04:34:26;13.52;;;9.23;;
51010;SDS011;37038;50.182;8.624;2022-08-05T04:37:20;17.50;;;9.13;;
51010;SDS011;37038;50.182;8.624;2022-08-05T04:40:27;15.02;;;9.27;;
51010;SDS011;37038;50.182;8.624;2022-08-05T04:43:15;12.95;;;9.38;;
51010;SDS011;37038;50.182;8.624;2022-08-05T04:46:08;13.32;;;9.27;;
51010;SDS011;37038;50.182;8.624;2022-08-05T04:48:56;17.30;;;11.27;;
51010;SDS011;37038;50.182;8.624;2022-08-05T04:51:44;12.68;;;10.32;;
51010;SDS011;37038;50.182;8.624;2022-08-05T04:54:33;24.35;;;13.65;;
51010;SDS011;37038;50.182;8.624;2022-08-05T04:57:21;56.65;;;16.65;;
51010;SDS011;37038;50.182;8.624;2022-08-05T05:00:15;36.45;;;16.17;;
51010;SDS011;37038;50.182;8.624;2022-08-05T05:03:04;24.23;;;12.90;;
51010;SDS011;37038;50.182;8.624;2022-08-05T05:05:53;70.00;;;21.77;;
51010;SDS011;37038;50.182;8.624;2022-08-05T05:09:00;24.13;;;17.00;;
51010;SDS011;37038;50.182;8.624;2022-08-05T05:11:51;20.85;;;15.18;;
51010;SDS011;37038;50.182;8.624;2022-08-05T05:14:47;17.20;;;14.52;;
51010;SDS011;37038;50.182;8.624;2022-08-05T05:17:38;17.88;;;15.18;;
51010;SDS011;37038;50.182;8.624;2022-08-05T05:20:44;19.05;;;15.93;;
51010;SDS011;37038;50.182;8.624;2022-08-05T05:23:35;16.65;;;12.68;;
51010;SDS011;37038;50.182;8.624;2022-08-05T05:26:43;15.75;;;14.05;;
51010;SDS011;37038;50.182;8.624;2022-08-05T05:29:34;16.20;;;13.38;;
51010;SDS011;37038;50.182;8.624;2022-08-05T05:32:41;13.20;;;11.75;;
51010;SDS011;37038;50.182;8.624;2022-08-05T05:35:32;13.70;;;10.95;;
51010;SDS011;37038;50.182;8.624;2022-08-05T05:38:25;16.33;;;13.35;;
51010;SDS011;37038;50.182;8.624;2022-08-05T05:41:17;14.25;;;12.45;;
51010;SDS011;37038;50.182;8.624;2022-08-05T05:44:04;18.88;;;12.68;;
51010;SDS011;37038;50.182;8.624;2022-08-05T05:47:12;14.82;;;11.20;;
51010;SDS011;37038;50.182;8.624;2022-08-05T05:50:08;14.52;;;11.02;;
51010;SDS011;37038;50.182;8.624;2022-08-05T05:53:05;18.70;;;12.23;;
51010;SDS011;37038;50.182;8.624;2022-08-05T05:56:08;12.85;;;11.40;;
51010;SDS011;37038;50.182;8.624;2022-08-05T05:58:56;16.33;;;12.80;;
51010;SDS011;37038;50.182;8.624;2022-08-05T06:01:49;15.00;;;13.23;;
51010;SDS011;37038;50.182;8.624;2022-08-05T06:04:44;19.33;;;13.85;;
51010;SDS011;37038;50.182;8.624;2022-08-05T06:07:37;19.67;;;15.40;;
51010;SDS011;37038;50.182;8.624;2022-08-05T06:10:44;16.25;;;13.88;;
51010;SDS011;37038;50.182;8.624;2022-08-05T06:13:38;18.48;;;13.80;;
51010;SDS011;37038;50.182;8.624;2022-08-05T06:16:40;14.75;;;13.15;;
51010;SDS011;37038;50.182;8.624;2022-08-05T06:19:29;15.55;;;13.55;;
51010;SDS011;37038;50.182;8.624;2022-08-05T06:22:21;17.27;;;13.05;;
51010;SDS011;37038;50.182;8.624;2022-08-05T06:25:11;16.00;;;12.52;;
51010;SDS011;37038;50.182;8.624;2022-08-05T06:28:19;13.23;;;11.88;;
51010;SDS011;37038;50.182;8.624;2022-08-05T06:31:08;16.13;;;12.75;;
51010;SDS011;37038;50.182;8.624;2022-08-05T06:34:03;14.20;;;12.52;;
51010;SDS011;37038;50.182;8.624;2022-08-05T06:36:55;16.15;;;12.32;;
51010;SDS011;37038;50.182;8.624;2022-08-05T06:39:44;14.70;;;12.45;;
51010;SDS011;37038;50.182;8.624;2022-08-05T06:42:34;11.70;;;10.50;;
51010;SDS011;37038;50.182;8.624;2022-08-05T06:45:25;13.32;;;11.15;;
51010;SDS011;37038;50.182;8.624;2022-08-05T06:48:36;11.15;;;10.02;;
51010;SDS011;37038;50.182;8.624;2022-08-05T06:51:45;14.65;;;11.18;;
51010;SDS011;37038;50.182;8.624;2022-08-05T06:54:32;12.43;;;11.00;;
51010;SDS011;37038;50.182;8.624;2022-08-05T06:57:22;13.95;;;12.45;;
51010;SDS011;37038;50.182;8.624;2022-08-05T07:00:29;13.95;;;12.45;;
51010;SDS011;37038;50.182;8.624;2022-08-05T07:03:19;14.48;;;11.95;;
51010;SDS011;37038;50.182;8.624;2022-08-05T07:06:14;17.80;;;13.70;;
51010;SDS011;37038;50.182;8.624;2022-08-05T07:09:05;14.52;;;12.90;;
51010;SDS011;37038;50.182;8.624;2022-08-05T07:11:53;13.48;;;12.07;;
51010;SDS011;37038;50.182;8.624;2022-08-05T07:14:46;15.95;;;11.68;;
51010;SDS011;37038;50.182;8.624;2022-08-05T07:17:54;11.85;;;10.73;;
51010;SDS011;37038;50.182;8.624;2022-08-05T07:20:56;13.52;;;11.57;;
51010;SDS011;37038;50.182;8.624;2022-08-05T07:23:50;10.90;;;9.70;;
51010;SDS011;37038;50.182;8.624;2022-08-05T07:26:39;11.50;;;9.52;;
51010;SDS011;37038;50.182;8.624;2022-08-05T07:29:27;13.75;;;9.98;;
51010;SDS011;37038;50.182;8.624;2022-08-05T07:32:36;17.65;;;12.98;;
51010;SDS011;37038;50.182;8.624;2022-08-05T07:35:24;19.98;;;14.80;;
51010;SDS011;37038;50.182;8.624;2022-08-05T07:38:33;17.77;;;14.13;;
51010;SDS011;37038;50.182;8.624;2022-08-05T07:41:30;17.35;;;15.05;;
51010;SDS011;37038;50.182;8.624;2022-08-05T07:44:38;16.88;;;14.52;;
51010;SDS011;37038;50.182;8.624;2022-08-05T07:47:25;16.27;;;14.60;;
51010;SDS011;37038;50.182;8.624;2022-08-05T07:50:28;18.10;;;14.95;;
51010;SDS011;37038;50.182;8.624;2022-08-05T07:53:19;15.90;;;14.27;;
51010;SDS011;37038;50.182;8.624;2022-08-05T07:56:12;16.10;;;13.93;;
51010;SDS011;37038;50.182;8.624;2022-08-05T07:59:21;15.70;;;12.63;;
51010;SDS011;37038;50.182;8.624;2022-08-05T08:02:27;14.35;;;12.68;;
51010;SDS011;37038;50.182;8.624;2022-08-05T08:05:18;16.83;;;12.25;;
51010;SDS011;37038;50.182;8.624;2022-08-05T08:08:12;16.67;;;10.60;;
51010;SDS011;37038;50.182;8.624;2022-08-05T08:11:06;11.18;;;10.00;;
51010;SDS011;37038;50.182;8.624;2022-08-05T08:13:55;11.50;;;9.13;;
51010;SDS011;37038;50.182;8.624;2022-08-05T08:16:47;9.18;;;8.27;;
51010;SDS011;37038;50.182;8.624;2022-08-05T08:19:37;10.20;;;9.23;;
51010;SDS011;37038;50.182;8.624;2022-08-05T08:22:53;10.15;;;8.43;;
51010;SDS011;37038;50.182;8.624;2022-08-05T08:25:42;9.27;;;7.55;;
51010;SDS011;37038;50.182;8.624;2022-08-05T08:28:47;11.48;;;7.25;;
51010;SDS011;37038;50.182;8.624;2022-08-05T08:31:48;6.07;;;5.53;;
51010;SDS011;37038;50.182;8.624;2022-08-05T08:34:38;6.38;;;5.07;;
51010;SDS011;37038;50.182;8.624;2022-08-05T08:37:25;5.50;;;4.82;;
51010;SDS011;37038;50.182;8.624;2022-08-05T08:40:22;8.52;;;5.72;;
51010;SDS011;37038;50.182;8.624;2022-08-05T08:43:11;8.65;;;5.07;;
51010;SDS011;37038;50.182;8.624;2022-08-05T08:46:22;7.20;;;5.07;;
51010;SDS011;37038;50.182;8.624;2022-08-05T08:49:13;6.10;;;4.72;;
51010;SDS011;37038;50.182;8.624;2022-08-05T08:52:24;7.68;;;4.55;;
51010;SDS011;37038;50.182;8.624;2022-08-05T08:55:18;5.40;;;4.72;;
51010;SDS011;37038;50.182;8.624;2022-08-05T08:58:27;8.68;;;4.32;;
51010;SDS011;37038;50.182;8.624;2022-08-05T09:01:30;5.85;;;4.28;;
51010;SDS011;37038;50.182;8.624;2022-08-05T09:04:18;5.72;;;3.65;;
51010;SDS011;37038;50.182;8.624;2022-08-05T09:07:16;5.57;;;3.83;;
51010;SDS011;37038;50.182;8.624;2022-08-05T09:10:14;5.78;;;3.92;;
51010;SDS011;37038;50.182;8.624;2022-08-05T09:13:04;5.10;;;3.97;;
51010;SDS011;37038;50.182;8.624;2022-08-05T09:15:54;4.53;;;3.58;;
51010;SDS011;37038;50.182;8.624;2022-08-05T09:18:48;5.25;;;3.70;;
51010;SDS011;37038;50.182;8.624;2022-08-05T09:21:36;5.78;;;3.47;;
51010;SDS011;37038;50.182;8.624;2022-08-05T09:24:56;5.07;;;3.17;;
51010;SDS011;37038;50.182;8.624;2022-08-05T09:28:14;3.60;;;3.30;;
51010;SDS011;37038;50.182;8.624;2022-08-05T09:31:08;3.88;;;3.38;;
51010;SDS011;37038;50.182;8.624;2022-08-05T09:34:21;3.55;;;3.25;;
51010;SDS011;37038;50.182;8.624;2022-08-05T09:37:20;4.47;;;2.80;;
51010;SDS011;37038;50.182;8.624;2022-08-05T09:40:33;6.03;;;3.70;;
51010;SDS011;37038;50.182;8.624;2022-08-05T09:43:39;4.65;;;3.35;;
51010;SDS011;37038;50.182;8.624;2022-08-05T09:46:31;4.60;;;3.47;;
51010;SDS011;37038;50.182;8.624;2022-08-05T09:49:22;3.60;;;3.30;;
51010;SDS011;37038;50.182;8.624;2022-08-05T09:52:32;3.80;;;3.50;;
51010;SDS011;37038;50.182;8.624;2022-08-05T09:55:34;3.85;;;3.25;;
51010;SDS011;37038;50.182;8.624;2022-08-05T09:58:54;4.07;;;3.47;;
51010;SDS011;37038;50.182;8.624;2022-08-05T10:02:03;4.07;;;3.25;;
51010;SDS011;37038;50.182;8.624;2022-08-05T10:04:51;3.88;;;3.10;;
51010;SDS011;37038;50.182;8.624;2022-08-05T10:07:43;5.35;;;2.65;;
51010;SDS011;37038;50.182;8.624;2022-08-05T10:10:52;5.57;;;3.33;;
51010;SDS011;37038;50.182;8.624;2022-08-05T10:13:44;3.33;;;2.90;;
51010;SDS011;37038;50.182;8.624;2022-08-05T10:16:35;3.30;;;2.90;;
51010;SDS011;37038;50.182;8.624;2022-08-05T10:22:48;4.72;;;3.60;;
51010;SDS011;37038;50.182;8.624;2022-08-05T10:25:37;3.85;;;2.75;;
51010;SDS011;37038;50.182;8.624;2022-08-05T10:28:25;4.53;;;2.78;;
51010;SDS011;37038;50.182;8.624;2022-08-05T10:31:16;4.43;;;3.10;;
51010;SDS011;37038;50.182;8.624;2022-08-05T10:34:26;3.55;;;3.00;;
51010;SDS011;37038;50.182;8.624;2022-08-05T10:37:17;4.72;;;2.95;;
51010;SDS011;37038;50.182;8.624;2022-08-05T10:40:09;4.22;;;3.10;;
51010;SDS011;37038;50.182;8.624;2022-08-05T10:43:22;3.38;;;3.08;;
51010;SDS011;37038;50.182;8.624;2022-08-05T10:46:37;3.90;;;2.80;;
51010;SDS011;37038;50.182;8.624;2022-08-05T10:49:58;4.57;;;3.05;;
51010;SDS011;37038;50.182;8.624;2022-08-05T10:56:45;3.28;;;2.97;;
51010;SDS011;37038;50.182;8.624;2022-08-05T10:59:39;3.42;;;3.13;;
51010;SDS011;37038;50.182;8.624;2022-08-05T11:03:07;4.63;;;3.30;;
51010;SDS011;37038;50.182;8.624;2022-08-05T11:06:12;6.00;;;3.45;;
51010;SDS011;37038;50.182;8.624;2022-08-05T11:09:18;3.92;;;3.35;;
51010;SDS011;37038;50.182;8.624;2022-08-05T11:15:32;4.85;;;3.45;;
51010;SDS011;37038;50.182;8.624;2022-08-05T11:18:47;4.00;;;3.63;;
51010;SDS011;37038;50.182;8.624;2022-08-05T11:25:36;4.70;;;3.67;;
51010;SDS011;37038;50.182;8.624;2022-08-05T11:28:52;4.45;;;3.63;;
51010;SDS011;37038;50.182;8.624;2022-08-05T11:31:45;4.47;;;3.60;;
51010;SDS011;37038;50.182;8.624;2022-08-05T11:41:01;4.55;;;3.55;;
51010;SDS011;37038;50.182;8.624;2022-08-05T11:44:23;5.10;;;4.13;;
51010;SDS011;37038;50.182;8.624;2022-08-05T11:47:40;5.55;;;3.85;;
51010;SDS011;37038;50.182;8.624;2022-08-05T11:50:37;5.75;;;3.75;;
51010;SDS011;37038;50.182;8.624;2022-08-05T11:53:25;4.90;;;3.63;;
51010;SDS011;37038;50.182;8.624;2022-08-05T11:59:38;4.13;;;3.60;;
51010;SDS011;37038;50.182;8.624;2022-08-05T12:02:36;3.65;;;3.35;;
51010;SDS011;37038;50.182;8.624;2022-08-05T12:05:30;4.38;;;3.72;;
51010;SDS011;37038;50.182;8.624;2022-08-05T12:08:26;4.30;;;3.90;;
51010;SDS011;37038;50.182;8.624;2022-08-05T12:11:18;3.72;;;3.30;;
51010;SDS011;37038;50.182;8.624;2022-08-05T12:14:10;4.82;;;4.38;;
51010;SDS011;37038;50.182;8.624;2022-08-05T12:17:09;6.15;;;4.95;;
51010;SDS011;37038;50.182;8.624;2022-08-05T12:20:19;5.10;;;4.60;;
51010;SDS011;37038;50.182;8.624;2022-08-05T12:23:19;6.30;;;5.13;;
51010;SDS011;37038;50.182;8.624;2022-08-05T12:29:02;5.78;;;5.20;;
51010;SDS011;37038;50.182;8.624;2022-08-05T12:31:58;5.82;;;5.32;;
51010;SDS011;37038;50.182;8.624;2022-08-05T12:34:48;6.38;;;5.78;;
51010;SDS011;37038;50.182;8.624;2022-08-05T12:37:36;6.90;;;6.18;;
51010;SDS011;37038;50.182;8.624;2022-08-05T12:40:29;7.67;;;7.07;;
51010;SDS011;37038;50.182;8.624;2022-08-05T12:43:19;8.30;;;6.97;;
51010;SDS011;37038;50.182;8.624;2022-08-05T12:46:09;8.88;;;8.07;;
51010;SDS011;37038;50.182;8.624;2022-08-05T12:49:17;9.48;;;7.82;;
51010;SDS011;37038;50.182;8.624;2022-08-05T12:52:15;9.32;;;8.43;;
51010;SDS011;37038;50.182;8.624;2022-08-05T12:55:15;10.98;;;7.85;;
51010;SDS011;37038;50.182;8.624;2022-08-05T12:58:21;10.05;;;7.07;;
51010;SDS011;37038;50.182;8.624;2022-08-05T13:01:30;6.93;;;6.32;;
51010;SDS011;37038;50.182;8.624;2022-08-05T13:04:41;6.45;;;5.85;;
51010;SDS011;37038;50.182;8.624;2022-08-05T13:07:41;6.22;;;5.63;;
51010;SDS011;37038;50.182;8.624;2022-08-05T13:10:47;5.53;;;5.03;;
51010;SDS011;37038;50.182;8.624;2022-08-05T13:13:39;5.63;;;5.20;;
51010;SDS011;37038;50.182;8.624;2022-08-05T13:16:52;5.82;;;5.32;;
51010;SDS011;37038;50.182;8.624;2022-08-05T13:22:57;5.78;;;5.28;;
51010;SDS011;37038;50.182;8.624;2022-08-05T13:25:45;5.90;;;5.43;;
51010;SDS011;37038;50.182;8.624;2022-08-05T13:28:45;5.90;;;5.30;;
51010;SDS011;37038;50.182;8.624;2022-08-05T13:31:38;8.05;;;5.50;;
51010;SDS011;37038;50.182;8.624;2022-08-05T13:34:47;12.23;;;6.28;;
51010;SDS011;37038;50.182;8.624;2022-08-05T13:37:40;5.35;;;4.93;;
51010;SDS011;37038;50.182;8.624;2022-08-05T13:40:30;5.45;;;5.05;;
51010;SDS011;37038;50.182;8.624;2022-08-05T13:43:37;6.97;;;5.72;;
51010;SDS011;37038;50.182;8.624;2022-08-05T13:46:37;6.97;;;6.38;;
51010;SDS011;37038;50.182;8.624;2022-08-05T13:49:45;6.68;;;6.00;;
51010;SDS011;37038;50.182;8.624;2022-08-05T13:52:36;7.55;;;6.65;;
51010;SDS011;37038;50.182;8.624;2022-08-05T13:55:23;7.78;;;7.07;;
51010;SDS011;37038;50.182;8.624;2022-08-05T13:58:28;8.43;;;7.65;;
51010;SDS011;37038;50.182;8.624;2022-08-05T14:01:17;8.23;;;7.43;;
51010;SDS011;37038;50.182;8.624;2022-08-05T14:04:05;9.60;;;8.63;;
51010;SDS011;37038;50.182;8.624;2022-08-05T14:07:12;10.27;;;9.13;;
51010;SDS011;37038;50.182;8.624;2022-08-05T14:10:20;12.23;;;10.95;;
51010;SDS011;37038;50.182;8.624;2022-08-05T14:13:15;12.77;;;11.38;;
51010;SDS011;37038;50.182;8.624;2022-08-05T14:16:04;10.93;;;9.90;;
51010;SDS011;37038;50.182;8.624;2022-08-05T14:18:57;12.00;;;10.55;;
51010;SDS011;37038;50.182;8.624;2022-08-05T14:21:50;11.95;;;10.77;;
51010;SDS011;37038;50.182;8.624;2022-08-05T14:24:58;9.57;;;8.68;;
51010;SDS011;37038;50.182;8.624;2022-08-05T14:27:52;12.60;;;10.63;;
51010;SDS011;37038;50.182;8.624;2022-08-05T14:30:40;11.93;;;10.85;;
51010;SDS011;37038;50.182;8.624;2022-08-05T14:33:32;13.10;;;11.60;;
51010;SDS011;37038;50.182;8.624;2022-08-05T14:36:40;12.50;;;11.30;;
51010;SDS011;37038;50.182;8.624;2022-08-05T14:42:36;13.30;;;12.07;;
51010;SDS011;37038;50.182;8.624;2022-08-05T14:45:24;12.13;;;10.93;;
51010;SDS011;37038;50.182;8.624;2022-08-05T14:48:12;12.13;;;11.02;;
51010;SDS011;37038;50.182;8.624;2022-08-05T14:51:20;13.85;;;12.60;;
51010;SDS011;37038;50.182;8.624;2022-08-05T14:54:08;13.45;;;12.15;;
51010;SDS011;37038;50.182;8.624;2022-08-05T14:57:16;15.32;;;13.85;;
51010;SDS011;37038;50.182;8.624;2022-08-05T15:00:04;16.80;;;13.48;;
51010;SDS011;37038;50.182;8.624;2022-08-05T15:02:56;14.35;;;13.00;;
51010;SDS011;37038;50.182;8.624;2022-08-05T15:05:45;16.52;;;13.52;;
51010;SDS011;37038;50.182;8.624;2022-08-05T15:08:52;14.20;;;12.73;;
51010;SDS011;37038;50.182;8.624;2022-08-05T15:11:49;13.27;;;11.98;;
51010;SDS011;37038;50.182;8.624;2022-08-05T15:14:39;13.73;;;12.30;;
51010;SDS011;37038;50.182;8.624;2022-08-05T15:17:36;12.93;;;11.40;;
51010;SDS011;37038;50.182;8.624;2022-08-05T15:20:37;15.40;;;11.80;;
51010;SDS011;37038;50.182;8.624;2022-08-05T15:23:27;15.90;;;12.02;;
51010;SDS011;37038;50.182;8.624;2022-08-05T15:26:15;13.65;;;11.00;;
51010;SDS011;37038;50.182;8.624;2022-08-05T15:29:18;12.82;;;9.70;;
51010;SDS011;37038;50.182;8.624;2022-08-05T15:32:08;10.18;;;8.93;;
51010;SDS011;37038;50.182;8.624;2022-08-05T15:34:55;9.68;;;8.48;;
51010;SDS011;37038;50.182;8.624;2022-08-05T15:37:43;8.77;;;7.78;;
51010;SDS011;37038;50.182;8.624;2022-08-05T15:40:54;8.05;;;7.25;;
51010;SDS011;37038;50.182;8.624;2022-08-05T15:44:02;5.85;;;5.25;;
51010;SDS011;37038;50.182;8.624;2022-08-05T15:46:50;4.93;;;4.53;;
51010;SDS011;37038;50.182;8.624;2022-08-05T15:49:38;4.82;;;4.35;;
51010;SDS011;37038;50.182;8.624;2022-08-05T15:52:44;5.07;;;3.08;;
51010;SDS011;37038;50.182;8.624;2022-08-05T15:55:41;3.92;;;3.47;;
51010;SDS011;37038;50.182;8.624;2022-08-05T15:58:49;4.20;;;2.30;;
51010;SDS011;37038;50.182;8.624;2022-08-05T16:01:37;2.65;;;2.45;;
51010;SDS011;37038;50.182;8.624;2022-08-05T16:04:38;2.58;;;2.00;;
51010;SDS011;37038;50.182;8.624;2022-08-05T16:07:26;5.25;;;1.98;;
51010;SDS011;37038;50.182;8.624;2022-08-05T16:10:15;2.83;;;2.22;;
51010;SDS011;37038;50.182;8.624;2022-08-05T16:13:11;2.83;;;1.80;;
51010;SDS011;37038;50.182;8.624;2022-08-05T16:16:09;1.98;;;1.73;;
51010;SDS011;37038;50.182;8.624;2022-08-05T16:18:58;1.90;;;1.80;;
51010;SDS011;37038;50.182;8.624;2022-08-05T16:21:46;4.90;;;1.60;;
51010;SDS011;37038;50.182;8.624;2022-08-05T16:24:49;1.63;;;1.48;;
51010;SDS011;37038;50.182;8.624;2022-08-05T16:27:38;1.70;;;1.60;;
51010;SDS011;37038;50.182;8.624;2022-08-05T16:30:46;1.45;;;1.30;;
51010;SDS011;37038;50.182;8.624;2022-08-05T16:33:36;2.15;;;1.48;;
51010;SDS011;37038;50.182;8.624;2022-08-05T16:36:28;4.35;;;1.35;;
51010;SDS011;37038;50.182;8.624;2022-08-05T16:39:16;1.50;;;1.13;;
51010;SDS011;37038;50.182;8.624;2022-08-05T16:42:06;1.95;;;1.77;;
51010;SDS011;37038;50.182;8.624;2022-08-05T16:45:03;1.65;;;1.55;;
51010;SDS011;37038;50.182;8.624;2022-08-05T16:48:12;1.70;;;1.60;;
51010;SDS011;37038;50.182;8.624;2022-08-05T16:51:12;2.47;;;1.67;;
51010;SDS011;37038;50.182;8.624;2022-08-05T16:54:01;2.20;;;1.50;;
51010;SDS011;37038;50.182;8.624;2022-08-05T16:57:05;1.95;;;1.67;;
51010;SDS011;37038;50.182;8.624;2022-08-05T17:00:08;1.77;;;1.48;;
51010;SDS011;37038;50.182;8.624;2022-08-05T17:03:03;2.53;;;1.50;;
51010;SDS011;37038;50.182;8.624;2022-08-05T17:06:06;1.88;;;1.30;;
51010;SDS011;37038;50.182;8.624;2022-08-05T17:08:56;1.45;;;1.35;;
51010;SDS011;37038;50.182;8.624;2022-08-05T17:11:45;2.03;;;1.52;;
51010;SDS011;37038;50.182;8.624;2022-08-05T17:14:36;1.40;;;1.30;;
51010;SDS011;37038;50.182;8.624;2022-08-05T17:17:24;1.17;;;1.17;;
51010;SDS011;37038;50.182;8.624;2022-08-05T17:20:41;1.40;;;1.30;;
51010;SDS011;37038;50.182;8.624;2022-08-05T17:23:31;1.80;;;1.15;;
51010;SDS011;37038;50.182;8.624;2022-08-05T17:26:39;1.50;;;1.40;;
51010;SDS011;37038;50.182;8.624;2022-08-05T17:29:28;1.63;;;1.33;;
51010;SDS011;37038;50.182;8.624;2022-08-05T17:32:26;3.25;;;1.30;;
51010;SDS011;37038;50.182;8.624;2022-08-05T17:35:14;3.35;;;1.80;;
51010;SDS011;37038;50.182;8.624;2022-08-05T17:38:07;2.13;;;1.60;;
51010;SDS011;37038;50.182;8.624;2022-08-05T17:40:56;1.90;;;1.45;;
51010;SDS011;37038;50.182;8.624;2022-08-05T17:43:45;2.10;;;1.70;;
51010;SDS011;37038;50.182;8.624;2022-08-05T17:46:40;2.38;;;1.60;;
51010;SDS011;37038;50.182;8.624;2022-08-05T17:49:29;1.60;;;1.50;;
51010;SDS011;37038;50.182;8.624;2022-08-05T17:52:37;4.30;;;2.15;;
51010;SDS011;37038;50.182;8.624;2022-08-05T17:55:41;2.22;;;1.55;;
51010;SDS011;37038;50.182;8.624;2022-08-05T17:58:30;2.25;;;1.67;;
51010;SDS011;37038;50.182;8.624;2022-08-05T18:01:18;2.55;;;1.77;;
51010;SDS011;37038;50.182;8.624;2022-08-05T18:04:06;2.97;;;1.80;;
51010;SDS011;37038;50.182;8.624;2022-08-05T18:06:58;2.33;;;1.70;;
51010;SDS011;37038;50.182;8.624;2022-08-05T18:09:48;2.72;;;1.90;;
51010;SDS011;37038;50.182;8.624;2022-08-05T18:12:48;3.60;;;1.98;;
51010;SDS011;37038;50.182;8.624;2022-08-05T18:15:36;5.15;;;2.35;;
51010;SDS011;37038;50.182;8.624;2022-08-05T18:18:24;5.30;;;1.95;;
51010;SDS011;37038;50.182;8.624;2022-08-05T18:21:13;4.25;;;2.30;;
51010;SDS011;37038;50.182;8.624;2022-08-05T18:24:09;6.47;;;2.00;;
51010;SDS011;37038;50.182;8.624;2022-08-05T18:26:58;5.30;;;2.25;;
51010;SDS011;37038;50.182;8.624;2022-08-05T18:29:46;4.85;;;2.20;;